createdAt,value
2023-08-08T00:01:54.675Z,151723.06
2023-08-08T00:04:20.960Z,151734.47
2023-08-08T00:06:47.200Z,151719.25
2023-08-08T00:09:13.451Z,151756.03
2023-08-08T00:11:39.707Z,151737.00
2023-08-08T00:14:05.905Z,151756.03
2023-08-08T00:16:33.135Z,151768.72
2023-08-08T00:18:59.406Z,151761.09
2023-08-08T00:21:25.672Z,151785.22
2023-08-08T00:23:51.995Z,151758.56
2023-08-08T00:26:18.526Z,151725.56
2023-08-08T00:28:44.871Z,151742.06
2023-08-08T00:31:11.127Z,151731.94
2023-08-08T00:33:37.397Z,151748.47
2023-08-08T00:36:03.674Z,151718.00
2023-08-08T00:38:29.949Z,151728.09
2023-08-08T00:40:56.228Z,151709.09
2023-08-08T00:43:22.520Z,151695.19
2023-08-08T00:45:48.791Z,151710.38
2023-08-08T00:48:15.049Z,151704.06
2023-08-08T00:50:41.310Z,151699.00
2023-08-08T00:53:07.562Z,151714.22
2023-08-08T00:55:33.828Z,151720.53
2023-08-08T00:58:00.058Z,151672.38
2023-08-08T01:00:27.497Z,151691.38
2023-08-08T01:02:53.926Z,151690.09
2023-08-08T01:05:20.205Z,151686.31
2023-08-08T01:07:46.450Z,151677.47
2023-08-08T01:10:12.717Z,151672.38
2023-08-08T01:12:38.941Z,151658.47
2023-08-08T01:15:05.208Z,151654.63
2023-08-08T01:17:31.547Z,151640.72
2023-08-08T01:19:57.792Z,151673.63
2023-08-08T01:22:24.072Z,151682.53
2023-08-08T01:24:50.358Z,151691.38
2023-08-08T01:27:16.589Z,151685.03
2023-08-08T01:29:42.868Z,151735.72
2023-08-08T01:32:10.518Z,151695.19
2023-08-08T01:34:38.671Z,151705.31
2023-08-08T01:37:04.923Z,151663.53
2023-08-08T01:39:31.774Z,151688.84
2023-08-08T01:41:58.279Z,151673.63
2023-08-08T01:44:24.666Z,151685.03
2023-08-08T01:46:50.940Z,151711.69
2023-08-08T01:49:17.234Z,151700.25
2023-08-08T01:51:43.445Z,151706.56
2023-08-08T01:54:09.676Z,151686.31
2023-08-08T01:56:35.947Z,151706.56
2023-08-08T01:59:02.232Z,151692.63
2023-08-08T02:01:28.839Z,151669.84
2023-08-08T02:03:55.647Z,151657.16
2023-08-08T02:06:22.407Z,151647.06
2023-08-08T02:08:48.870Z,151663.53
2023-08-08T02:11:15.109Z,151658.47
2023-08-08T02:13:41.391Z,151680.00
2023-08-08T02:16:07.717Z,151677.47
2023-08-08T02:18:34.012Z,151662.25
2023-08-08T02:21:00.243Z,151645.78
2023-08-08T02:23:26.471Z,151643.25
2023-08-08T02:25:52.779Z,151658.47
2023-08-08T02:28:19.038Z,151647.06
2023-08-08T02:30:45.311Z,151636.91
2023-08-08T02:33:11.581Z,151625.53
2023-08-08T02:35:38.075Z,151629.31
2023-08-08T02:38:04.324Z,151601.44
2023-08-08T02:40:30.561Z,151628.06
2023-08-08T02:42:56.779Z,151609.06
2023-08-08T02:45:23.014Z,151595.13
2023-08-08T02:47:49.399Z,151615.38
2023-08-08T02:50:15.698Z,151606.53
2023-08-08T02:52:41.968Z,151581.16
2023-08-08T02:55:08.273Z,151565.97
2023-08-08T02:57:34.563Z,151493.78
2023-08-08T03:00:00.838Z,151521.66
2023-08-08T03:02:27.187Z,151492.53
2023-08-08T03:04:53.508Z,151536.88
2023-08-08T03:07:19.773Z,151545.72
2023-08-08T03:09:46.063Z,151539.41
2023-08-08T03:12:12.290Z,151559.66
2023-08-08T03:14:38.587Z,151583.69
2023-08-08T03:17:04.857Z,151567.28
2023-08-08T03:19:31.119Z,151564.69
2023-08-08T03:21:58.058Z,151546.97
2023-08-08T03:24:24.550Z,151535.59
2023-08-08T03:26:50.800Z,151563.44
2023-08-08T03:29:17.040Z,151544.44
2023-08-08T03:31:43.248Z,151558.38
2023-08-08T03:34:09.570Z,151533.06
2023-08-08T03:36:35.974Z,151548.25
2023-08-08T03:39:02.231Z,151540.66
2023-08-08T03:41:28.491Z,151533.06
2023-08-08T03:43:54.787Z,151517.88
2023-08-08T03:46:21.090Z,151519.13
2023-08-08T03:48:47.332Z,151530.50
2023-08-08T03:51:13.569Z,151562.19
2023-08-08T03:53:39.811Z,151545.72
2023-08-08T03:56:06.071Z,151524.19
2023-08-08T03:58:32.304Z,151526.72
2023-08-08T04:00:58.595Z,151545.72
2023-08-08T04:03:24.904Z,151572.34
2023-08-08T04:05:51.195Z,151560.91
2023-08-08T04:08:17.507Z,151557.13
2023-08-08T04:10:43.756Z,151555.84
2023-08-08T04:13:10.014Z,151562.19
2023-08-08T04:15:36.224Z,151543.19
2023-08-08T04:18:02.525Z,151571.06
2023-08-08T04:20:28.799Z,151552.06
2023-08-08T04:22:55.043Z,151546.97
2023-08-08T04:25:21.316Z,151550.81
2023-08-08T04:27:47.571Z,151536.88
2023-08-08T04:30:13.804Z,151549.53
2023-08-08T04:32:40.077Z,151560.91
2023-08-08T04:35:06.419Z,151554.59
2023-08-08T04:37:32.759Z,151548.25
2023-08-08T04:39:59.463Z,151526.72
2023-08-08T04:42:25.737Z,151538.13
2023-08-08T04:44:52.021Z,151512.78
2023-08-08T04:47:18.252Z,151524.19
2023-08-08T04:49:44.530Z,151520.41
2023-08-08T04:52:10.780Z,151539.41
2023-08-08T04:54:38.685Z,151544.44
2023-08-08T04:57:04.946Z,151546.97
2023-08-08T04:59:31.177Z,151590.06
2023-08-08T05:01:57.533Z,151591.31
2023-08-08T05:04:23.979Z,151582.44
2023-08-08T05:06:50.257Z,151565.97
2023-08-08T05:09:16.493Z,151572.34
2023-08-08T05:11:42.698Z,151519.13
2023-08-08T05:14:08.958Z,151474.81
2023-08-08T05:16:35.251Z,151500.16
2023-08-08T05:19:01.605Z,151535.59
2023-08-08T05:21:27.855Z,151554.59
2023-08-08T05:23:54.072Z,151563.44
2023-08-08T05:26:20.341Z,151568.53
2023-08-08T05:28:46.641Z,151539.41
2023-08-08T05:31:12.933Z,151522.94
2023-08-08T05:33:39.202Z,151535.59
2023-08-08T05:36:05.420Z,151564.69
2023-08-08T05:38:31.711Z,151543.19
2023-08-08T05:40:58.000Z,151543.19
2023-08-08T05:43:24.231Z,151569.81
2023-08-08T05:45:50.518Z,151562.19
2023-08-08T05:48:16.798Z,151590.06
2023-08-08T05:50:43.093Z,151584.97
2023-08-08T05:53:09.343Z,151583.69
2023-08-08T05:55:35.587Z,151595.13
2023-08-08T05:58:01.854Z,151590.06
2023-08-08T06:00:28.103Z,151593.84
2023-08-08T06:02:54.376Z,151582.44
2023-08-08T06:05:20.655Z,151586.28
2023-08-08T06:07:46.914Z,151586.28
2023-08-08T06:10:13.203Z,151598.91
2023-08-08T06:12:39.484Z,151629.31
2023-08-08T06:15:05.713Z,151653.38
2023-08-08T06:17:32.032Z,151617.91
2023-08-08T06:19:58.362Z,151597.63
2023-08-08T06:22:24.676Z,151604.00
2023-08-08T06:24:50.941Z,151597.63
2023-08-08T06:27:17.199Z,151605.28
2023-08-08T06:29:43.548Z,151587.53
2023-08-08T06:32:09.852Z,151642.00
2023-08-08T06:34:38.669Z,151623.00
2023-08-08T06:37:04.906Z,151602.69
2023-08-08T06:39:31.299Z,151593.84
2023-08-08T06:41:58.076Z,151591.31
2023-08-08T06:44:24.583Z,151597.63
2023-08-08T06:46:50.883Z,151604.00
2023-08-08T06:49:17.120Z,151596.38
2023-08-08T06:51:43.375Z,151595.13
2023-08-08T06:54:09.678Z,151620.44
2023-08-08T06:56:35.941Z,151625.53
2023-08-08T06:59:02.145Z,151614.09
2023-08-08T07:01:28.491Z,151625.53
2023-08-08T07:03:54.846Z,151643.25
2023-08-08T07:06:21.164Z,151588.78
2023-08-08T07:08:47.403Z,151629.31
2023-08-08T07:11:13.667Z,151636.91
2023-08-08T07:13:40.066Z,151611.59
2023-08-08T07:16:06.514Z,151644.53
2023-08-08T07:18:32.761Z,151645.78
2023-08-08T07:20:59.040Z,151624.25
2023-08-08T07:23:25.269Z,151635.63
2023-08-08T07:25:51.944Z,151643.25
2023-08-08T07:28:19.893Z,151633.09
2023-08-08T07:30:46.222Z,151610.31
2023-08-08T07:33:12.598Z,151640.72
2023-08-08T07:35:38.938Z,151652.09
2023-08-08T07:38:05.193Z,151659.72
2023-08-08T07:40:31.475Z,151640.72
2023-08-08T07:42:57.766Z,151640.72
2023-08-08T07:45:24.011Z,151633.09
2023-08-08T07:47:50.235Z,151663.53
2023-08-08T07:50:16.568Z,151663.53
2023-08-08T07:52:42.804Z,151676.19
2023-08-08T07:55:09.083Z,151672.38
2023-08-08T07:57:35.360Z,151686.31
2023-08-08T08:00:01.628Z,151705.31
2023-08-08T08:02:27.959Z,151692.63
2023-08-08T08:04:54.236Z,151691.38
2023-08-08T08:07:20.481Z,151696.47
2023-08-08T08:09:46.700Z,151693.94
2023-08-08T08:12:13.005Z,151715.47
2023-08-08T08:14:39.283Z,151677.47
2023-08-08T08:17:05.659Z,151666.03
2023-08-08T08:19:32.077Z,151697.72
2023-08-08T08:21:58.664Z,151714.22
2023-08-08T08:24:25.289Z,151705.31
2023-08-08T08:26:51.510Z,151733.22
2023-08-08T08:29:17.767Z,151757.31
2023-08-08T08:31:44.036Z,151759.84
2023-08-08T08:34:10.281Z,151781.38
2023-08-08T08:36:36.534Z,151763.63
2023-08-08T08:39:02.854Z,151748.47
2023-08-08T08:41:29.139Z,151758.56
2023-08-08T08:43:55.467Z,151767.47
2023-08-08T08:46:21.817Z,151789.00
2023-08-08T08:48:48.093Z,151828.28
2023-08-08T08:51:14.338Z,151800.38
2023-08-08T08:53:40.608Z,151800.38
2023-08-08T08:56:07.297Z,151785.22
2023-08-08T08:58:33.560Z,151809.28
2023-08-08T09:00:59.874Z,151827.00
2023-08-08T09:03:26.408Z,151851.09
2023-08-08T09:05:52.757Z,151832.06
2023-08-08T09:08:18.990Z,151854.88
2023-08-08T09:10:45.212Z,151852.34
2023-08-08T09:13:11.560Z,151849.81
2023-08-08T09:15:37.826Z,151861.25
2023-08-08T09:18:04.215Z,151885.31
2023-08-08T09:20:30.937Z,151900.53
2023-08-08T09:22:57.251Z,151917.00
2023-08-08T09:25:23.497Z,151946.19
2023-08-08T09:27:49.734Z,151996.88
2023-08-08T09:30:15.943Z,151991.81
2023-08-08T09:32:42.253Z,151969.00
2023-08-08T09:35:08.561Z,151996.88
2023-08-08T09:37:38.991Z,151946.19
2023-08-08T09:40:05.250Z,151909.38
2023-08-08T09:42:31.469Z,151927.13
2023-08-08T09:44:57.776Z,151917.00
2023-08-08T09:47:24.102Z,151911.94
2023-08-08T09:49:50.456Z,151914.47
2023-08-08T09:52:16.781Z,151908.13
2023-08-08T09:54:43.037Z,151908.13
2023-08-08T09:57:09.266Z,151925.88
2023-08-08T09:59:37.341Z,151947.44
2023-08-08T10:02:04.095Z,151962.63
2023-08-08T10:04:30.710Z,151972.78
2023-08-08T10:06:57.153Z,151999.38
2023-08-08T10:09:23.420Z,151999.38
2023-08-08T10:11:49.724Z,151958.84
2023-08-08T10:14:15.983Z,151977.84
2023-08-08T10:16:43.568Z,151955.03
2023-08-08T10:19:10.420Z,151986.75
2023-08-08T10:21:36.769Z,152015.88
2023-08-08T10:24:03.018Z,152010.81
2023-08-08T10:26:29.248Z,152017.16
2023-08-08T10:28:57.251Z,152005.75
2023-08-08T10:31:24.989Z,152008.28
2023-08-08T10:33:51.329Z,152003.22
2023-08-08T10:36:17.589Z,151962.63
2023-08-08T10:38:43.831Z,151970.25
2023-08-08T10:41:10.077Z,151933.50
2023-08-08T10:43:36.319Z,151981.63
2023-08-08T10:46:12.725Z,152026.03
2023-08-08T10:48:40.057Z,152072.97
2023-08-08T10:51:06.264Z,152197.31
2023-08-08T10:53:32.552Z,152268.34
2023-08-08T10:55:58.818Z,152306.41
2023-08-08T10:58:25.099Z,152244.25
2023-08-08T11:00:51.397Z,152293.75
2023-08-08T11:03:17.689Z,152286.13
2023-08-08T11:05:44.743Z,152268.34
2023-08-08T11:08:11.061Z,152201.16
2023-08-08T11:10:37.300Z,152190.97
2023-08-08T11:13:03.624Z,152185.91
2023-08-08T11:15:29.898Z,152282.31
2023-08-08T11:17:56.295Z,152307.75
2023-08-08T11:20:22.604Z,152251.84
2023-08-08T11:22:48.825Z,152284.84
2023-08-08T11:25:15.522Z,152194.78
2023-08-08T11:27:43.038Z,152165.63
2023-08-08T11:30:10.634Z,152137.69
2023-08-08T11:32:38.886Z,152099.66
2023-08-08T11:35:05.110Z,152014.63
2023-08-08T11:37:31.379Z,151998.13
2023-08-08T11:39:58.064Z,151967.72
2023-08-08T11:42:24.320Z,151994.34
2023-08-08T11:44:50.594Z,151996.88
2023-08-08T11:47:17.016Z,151993.06
2023-08-08T11:49:43.306Z,151949.97
2023-08-08T11:52:09.627Z,151937.28
2023-08-08T11:54:35.927Z,151960.09
2023-08-08T11:57:02.689Z,152055.22
2023-08-08T11:59:28.927Z,152099.66
2023-08-08T12:01:55.179Z,152166.88
2023-08-08T12:04:21.455Z,152154.19
2023-08-08T12:06:47.727Z,152138.97
2023-08-08T12:09:14.018Z,152149.13
2023-08-08T12:11:40.341Z,152100.91
2023-08-08T12:14:06.578Z,152094.59
2023-08-08T12:16:34.282Z,152121.19
2023-08-08T12:19:01.020Z,152088.16
2023-08-08T12:21:27.700Z,152062.81
2023-08-08T12:23:53.957Z,152041.28
2023-08-08T12:26:20.325Z,152047.59
2023-08-08T12:28:46.569Z,152051.38
2023-08-08T12:31:12.846Z,152003.22
2023-08-08T12:33:39.183Z,152018.47
2023-08-08T12:36:05.594Z,152005.75
2023-08-08T12:38:31.816Z,152008.28
2023-08-08T12:40:58.077Z,151970.25
2023-08-08T12:43:24.451Z,151986.75
2023-08-08T12:45:50.700Z,152014.63
2023-08-08T12:48:16.915Z,151998.13
2023-08-08T12:50:43.174Z,151998.13
2023-08-08T12:53:09.470Z,152014.63
2023-08-08T12:55:35.764Z,152014.63
2023-08-08T12:58:02.019Z,151991.81
2023-08-08T13:00:28.301Z,152022.25
2023-08-08T13:02:54.721Z,151996.88
2023-08-08T13:05:20.986Z,151994.34
2023-08-08T13:07:47.208Z,151984.22
2023-08-08T13:10:13.456Z,151922.06
2023-08-08T13:12:39.720Z,151913.22
2023-08-08T13:15:06.900Z,151917.00
2023-08-08T13:17:34.501Z,151877.72
2023-08-08T13:20:00.868Z,151906.84
2023-08-08T13:22:27.148Z,151904.31
2023-08-08T13:24:53.419Z,151840.97
2023-08-08T13:27:19.653Z,151881.50
2023-08-08T13:29:45.965Z,151879.00
2023-08-08T13:32:12.251Z,151882.78
2023-08-08T13:34:38.819Z,151872.63
2023-08-08T13:37:05.084Z,151891.69
2023-08-08T13:39:31.434Z,151901.78
2023-08-08T13:41:57.715Z,151927.13
2023-08-08T13:44:24.037Z,151953.78
2023-08-08T13:46:50.320Z,151998.13
2023-08-08T13:49:16.615Z,152055.22
2023-08-08T13:51:43.085Z,152050.13
2023-08-08T13:54:10.926Z,152046.31
2023-08-08T13:56:37.194Z,152072.97
2023-08-08T13:59:03.439Z,152121.19
2023-08-08T14:01:29.671Z,152198.63
2023-08-08T14:03:56.119Z,152246.78
2023-08-08T14:06:22.435Z,152244.25
2023-08-08T14:08:48.675Z,152276.00
2023-08-08T14:11:14.983Z,152314.06
2023-08-08T14:13:41.220Z,152314.06
2023-08-08T14:16:07.489Z,152330.56
2023-08-08T14:18:33.821Z,152347.06
2023-08-08T14:21:00.086Z,152344.53
2023-08-08T14:23:26.437Z,152310.28
2023-08-08T14:25:52.796Z,152470.25
2023-08-08T14:28:19.098Z,152654.41
2023-08-08T14:30:45.389Z,152704.00
2023-08-08T14:33:11.688Z,152805.63
2023-08-08T14:35:38.029Z,152748.44
2023-08-08T14:38:04.308Z,152771.31
2023-08-08T14:40:30.588Z,152754.78
2023-08-08T14:42:56.885Z,152761.16
2023-08-08T14:45:23.192Z,152674.72
2023-08-08T14:47:49.589Z,152604.84
2023-08-08T14:50:15.979Z,152518.47
2023-08-08T14:52:42.257Z,152509.63
2023-08-08T14:55:08.542Z,152419.47
2023-08-08T14:57:34.856Z,152377.50
2023-08-08T15:00:01.093Z,152348.34
2023-08-08T15:02:27.492Z,152336.91
2023-08-08T15:04:53.790Z,152361.03
2023-08-08T15:07:20.083Z,152480.38
2023-08-08T15:09:46.285Z,152527.38
2023-08-08T15:12:12.565Z,152510.88
2023-08-08T15:14:38.885Z,152490.56
2023-08-08T15:17:05.131Z,152472.78
2023-08-08T15:19:31.397Z,152391.47
2023-08-08T15:21:57.624Z,152371.16
2023-08-08T15:24:23.865Z,152388.94
2023-08-08T15:26:50.127Z,152414.34
2023-08-08T15:29:16.421Z,152328.03
2023-08-08T15:31:42.804Z,152345.81
2023-08-08T15:34:09.166Z,152359.72
2023-08-08T15:36:35.382Z,152378.81
2023-08-08T15:39:01.692Z,152350.88
2023-08-08T15:41:28.098Z,152295.03
2023-08-08T15:43:54.385Z,152330.56
2023-08-08T15:46:20.683Z,152378.81
2023-08-08T15:48:47.005Z,152378.81
2023-08-08T15:51:13.242Z,152410.56
2023-08-08T15:53:39.528Z,152540.06
2023-08-08T15:56:05.845Z,152628.97
2023-08-08T15:58:32.181Z,152632.81
2023-08-08T16:00:58.528Z,152561.69
2023-08-08T16:03:25.025Z,152535.00
2023-08-08T16:05:51.393Z,152521.00
2023-08-08T16:08:18.619Z,152564.22
2023-08-08T16:10:45.377Z,152529.94
2023-08-08T16:13:11.767Z,152485.47
2023-08-08T16:15:38.039Z,152441.03
2023-08-08T16:18:04.381Z,152456.28
2023-08-08T16:20:30.708Z,152430.88
2023-08-08T16:22:57.008Z,152424.53
2023-08-08T16:25:23.236Z,152385.16
2023-08-08T16:27:49.494Z,152402.91
2023-08-08T16:30:15.753Z,152416.94
2023-08-08T16:32:42.173Z,152419.47
2023-08-08T16:35:08.439Z,152430.88
2023-08-08T16:37:34.732Z,152409.28
2023-08-08T16:40:01.053Z,152408.03
2023-08-08T16:42:27.357Z,152447.38
2023-08-08T16:44:53.629Z,152468.94
2023-08-08T16:47:19.906Z,152446.09
2023-08-08T16:49:46.176Z,152424.53
2023-08-08T16:52:12.444Z,152442.31
2023-08-08T16:54:38.925Z,152446.09
2023-08-08T16:57:05.145Z,152449.91
2023-08-08T16:59:31.436Z,152477.84
2023-08-08T17:01:57.696Z,152519.75
2023-08-08T17:04:24.004Z,152554.03
2023-08-08T17:06:50.295Z,152522.28
2023-08-08T17:09:16.527Z,152494.38
2023-08-08T17:11:42.838Z,152552.78
2023-08-08T17:14:09.111Z,152555.31
2023-08-08T17:16:35.383Z,152608.66
2023-08-08T17:19:03.235Z,152616.28
2023-08-08T17:21:29.568Z,152622.63
2023-08-08T17:23:55.831Z,152642.94
2023-08-08T17:26:22.117Z,152644.22
2023-08-08T17:28:48.369Z,152642.94
2023-08-08T17:31:14.681Z,152621.34
2023-08-08T17:33:40.994Z,152533.72
2023-08-08T17:36:07.264Z,152523.59
2023-08-08T17:38:33.563Z,152507.09
2023-08-08T17:40:59.828Z,152465.16
2023-08-08T17:43:26.098Z,152468.94
2023-08-08T17:45:52.395Z,152463.88
2023-08-08T17:48:18.728Z,152443.56
2023-08-08T17:50:45.013Z,152416.94
2023-08-08T17:53:11.222Z,152423.28
2023-08-08T17:55:37.516Z,152438.50
2023-08-08T17:58:03.746Z,152404.19
2023-08-08T18:00:30.801Z,152405.44
2023-08-08T18:02:57.122Z,152385.16
2023-08-08T18:05:23.418Z,152408.03
2023-08-08T18:07:49.711Z,152429.59
2023-08-08T18:10:15.978Z,152395.28
2023-08-08T18:12:42.232Z,152388.94
2023-08-08T18:15:08.497Z,152400.38
2023-08-08T18:17:34.789Z,152362.31
2023-08-08T18:20:01.072Z,152352.13
2023-08-08T18:22:27.731Z,152322.94
2023-08-08T18:24:54.133Z,152289.97
2023-08-08T18:27:20.353Z,152260.75
2023-08-08T18:29:46.602Z,152254.44
2023-08-08T18:32:12.856Z,152221.44
2023-08-08T18:34:39.167Z,152206.22
2023-08-08T18:37:05.514Z,152207.47
2023-08-08T18:39:31.893Z,152189.72
2023-08-08T18:41:58.207Z,152194.78
2023-08-08T18:44:24.653Z,152190.97
2023-08-08T18:46:50.958Z,152188.44
2023-08-08T18:49:17.255Z,152196.03
2023-08-08T18:51:43.487Z,152198.63
2023-08-08T18:54:09.789Z,152206.22
2023-08-08T18:56:36.089Z,152204.94
2023-08-08T18:59:02.287Z,152166.88
2023-08-08T19:01:28.631Z,152160.50
2023-08-08T19:03:55.125Z,152150.41
2023-08-08T19:06:21.397Z,152152.91
2023-08-08T19:08:47.685Z,152156.72
2023-08-08T19:11:13.985Z,152163.09
2023-08-08T19:13:40.306Z,152175.75
2023-08-08T19:16:06.556Z,152141.50
2023-08-08T19:18:32.914Z,152160.50
2023-08-08T19:21:00.957Z,152146.59
2023-08-08T19:23:27.236Z,152140.22
2023-08-08T19:25:53.538Z,152140.22
2023-08-08T19:28:19.824Z,152170.69
2023-08-08T19:30:46.096Z,152157.97
2023-08-08T19:33:12.357Z,152123.72
2023-08-08T19:35:38.603Z,152119.94
2023-08-08T19:38:04.892Z,152103.44
2023-08-08T19:40:31.180Z,152107.22
2023-08-08T19:42:57.485Z,152121.19
2023-08-08T19:45:23.767Z,152103.44
2023-08-08T19:47:50.043Z,152086.91
2023-08-08T19:50:16.391Z,152095.84
2023-08-08T19:52:42.661Z,152099.66
2023-08-08T19:55:08.922Z,152114.88
2023-08-08T19:57:35.218Z,152123.72
2023-08-08T20:00:01.493Z,152118.66
2023-08-08T20:02:27.786Z,152121.19
2023-08-08T20:04:54.086Z,152117.41
2023-08-08T20:07:20.378Z,152089.44
2023-08-08T20:09:46.652Z,152071.66
2023-08-08T20:12:13.005Z,152059.03
2023-08-08T20:14:39.467Z,152066.63
2023-08-08T20:17:05.717Z,152069.16
2023-08-08T20:19:32.185Z,152050.13
2023-08-08T20:21:58.429Z,152037.47
2023-08-08T20:24:24.731Z,152019.72
2023-08-08T20:26:50.980Z,152003.22
2023-08-08T20:29:17.216Z,151996.88
2023-08-08T20:31:43.452Z,152007.03
2023-08-08T20:34:09.745Z,152022.25
2023-08-08T20:36:36.156Z,152008.28
2023-08-08T20:39:02.399Z,152005.75
2023-08-08T20:41:28.657Z,151998.13
2023-08-08T20:43:54.901Z,152003.22
2023-08-08T20:46:21.184Z,152000.72
2023-08-08T20:48:47.476Z,151993.06
2023-08-08T20:51:13.734Z,151980.38
2023-08-08T20:53:39.967Z,151990.53
2023-08-08T20:56:06.261Z,151944.88
2023-08-08T20:58:32.538Z,151934.75
2023-08-08T21:00:58.915Z,151942.34
2023-08-08T21:03:25.281Z,151949.97
2023-08-08T21:05:51.607Z,151915.75
2023-08-08T21:08:19.043Z,151925.88
2023-08-08T21:10:45.310Z,151898.00
2023-08-08T21:13:11.622Z,151913.22
2023-08-08T21:15:37.882Z,151932.22
2023-08-08T21:18:04.193Z,151928.44
2023-08-08T21:20:30.461Z,151917.00
2023-08-08T21:22:56.728Z,151927.13
2023-08-08T21:25:22.964Z,151913.22
2023-08-08T21:27:49.258Z,151909.38
2023-08-08T21:30:15.581Z,151901.78
2023-08-08T21:32:42.003Z,151906.84
2023-08-08T21:35:11.249Z,151905.59
2023-08-08T21:37:37.541Z,151908.13
2023-08-08T21:40:03.809Z,151905.59
2023-08-08T21:42:30.073Z,151901.78
2023-08-08T21:44:56.357Z,151928.44
2023-08-08T21:47:22.675Z,151881.50
2023-08-08T21:49:48.953Z,151879.00
2023-08-08T21:52:15.332Z,151905.59
2023-08-08T21:54:42.010Z,151906.84
2023-08-08T21:57:08.230Z,151910.69
2023-08-08T21:59:34.555Z,151924.59
2023-08-08T22:02:00.873Z,151917.00
2023-08-08T22:04:27.217Z,151886.56
2023-08-08T22:06:53.510Z,151900.53
2023-08-08T22:09:19.846Z,151906.84
2023-08-08T22:11:46.225Z,151894.22
2023-08-08T22:14:12.442Z,151905.59
2023-08-08T22:16:38.748Z,151895.47
2023-08-08T22:19:05.048Z,151914.47
2023-08-08T22:21:31.422Z,151911.94
2023-08-08T22:23:57.709Z,151922.06
2023-08-08T22:26:23.986Z,151925.88
2023-08-08T22:28:50.272Z,151938.56
2023-08-08T22:31:16.555Z,151939.81
2023-08-08T22:33:42.851Z,151934.75
2023-08-08T22:36:09.103Z,151960.09
2023-08-08T22:38:35.390Z,151949.97
2023-08-08T22:41:01.666Z,151972.78
2023-08-08T22:43:27.909Z,151966.47
2023-08-08T22:45:54.238Z,151936.03
2023-08-08T22:48:20.518Z,151966.47
2023-08-08T22:50:46.790Z,151953.78
2023-08-08T22:53:13.117Z,151962.63
2023-08-08T22:55:39.440Z,151928.44
2023-08-08T22:58:14.888Z,151942.34
2023-08-08T23:00:41.154Z,151930.97
2023-08-08T23:03:14.671Z,151952.50
2023-08-08T23:05:40.965Z,151946.19
2023-08-08T23:08:07.230Z,151924.59
2023-08-08T23:10:33.566Z,151932.22
2023-08-08T23:12:59.800Z,151915.75
2023-08-08T23:15:26.070Z,151919.53
2023-08-08T23:17:52.445Z,151914.47
2023-08-08T23:20:18.694Z,151904.31
2023-08-08T23:22:44.987Z,151901.78
2023-08-08T23:25:11.216Z,151941.09
2023-08-08T23:27:37.501Z,151944.88
2023-08-08T23:30:03.851Z,151951.25
2023-08-08T23:32:30.096Z,151925.88
2023-08-08T23:34:56.358Z,151933.50
2023-08-08T23:37:22.638Z,151924.59
2023-08-08T23:39:48.956Z,151918.28
2023-08-08T23:42:15.234Z,151896.75
2023-08-08T23:44:41.552Z,151903.06
2023-08-08T23:47:07.824Z,151906.84
2023-08-08T23:49:34.105Z,151914.47
2023-08-08T23:52:00.310Z,151922.06
2023-08-08T23:54:26.573Z,151941.09
2023-08-08T23:56:52.835Z,151936.03
2023-08-08T23:59:19.091Z,151930.97
